Pelly Crossing, Canada
Current Conditions -  °F | °C
As of 12:00 AM on Sunday 23 Nov 2014 (Local Time) from CYMA Reporting Station
Light Snow Light Snow  
Wind Chill: -13°   Ceiling: 5000
Heat Index:   Visibility: 20mi
Dew Point: -4°   Wind: 12mph
Humidity: 72%   Direction: 10°N
Pressure: 29.55"   Gusts: 20mph
Location:  62.83°N, 136.58°W
Report Text: CYMA 230800Z 01010G17KT 20SM -SN DRSN OVC050 M16/M20 A2955 RMK SC8 SLP057
Loading
Personal Weather Stations






























Interactive Weather Map New forecast layout! Learn more

10-Day Weather Forecast

Advertisements
Track Severe Weather on mobile